Grand Portage, Minnesota
Current Conditions -  °F | °C
As of 7:00 AM on Saturday 25 Oct 2014 (Local Time) from CYQT Reporting Station
Few Clouds Few Clouds  
Wind Chill: 52°   Ceiling: Unl
Heat Index: 52°   Visibility: 15mi
Dew Point: 34°   Wind: 23mph
Humidity: 50%   Direction: 280°W
Pressure: 29.63"   Gusts: 32mph
Location:  47.96°N, 89.68°W
Report Text: CYQT 251200Z 28020G28KT 15SM FEW250 11/01 A2963 RMK CI1 SLP040
Loading
Personal Weather Stations






























Interactive Weather Map
Tropical Storm Tracking
New forecast layout! Learn more

10-Day Weather Forecast

Advertisements
Track Severe Weather on mobile